Time;durP1;ratioP1;P1;durP2;ratioP2;P2;SDS_P1;SDS_P2;PMS_P1;PMS_P2;Temp;Humidity;BMP_temperature;BMP_pressure;BME280_temperature;BME280_humidity;BME280_pressure;Samples;Min_cycle;Max_cycle;Signal;HPM_P1;HPM_P2
2023/06/02 00:00:09;;;;;;;3.57;3.10;;;;;;;;;;5121497;28;20201;-67
2023/06/02 00:02:38;;;;;;;4.97;3.10;;;;;;;;;;5121697;28;20280;-69
2023/06/02 00:05:06;;;;;;;4.57;3.20;;;;;;;;;;5121051;28;20626;-67
2023/06/02 00:07:37;;;;;;;5.77;3.53;;;;;;;;;;5121400;28;20244;-68
2023/06/02 00:10:06;;;;;;;4.40;3.30;;;;;;;;;;5121554;27;20208;-67
2023/06/02 00:12:34;;;;;;;4.50;3.77;;;;;;;;;;5121516;27;20251;-68
2023/06/02 00:15:05;;;;;;;4.60;3.43;;;;;;;;;;5121299;28;20205;-67
2023/06/02 00:17:34;;;;;;;4.87;3.70;;;;;;;;;;5121302;28;20284;-67
2023/06/02 00:20:05;;;;;;;5.23;3.30;;;;;;;;;;5121599;28;20208;-69
2023/06/02 00:22:38;;;;;;;5.73;3.40;;;;;;;;;;5121364;28;20269;-68
2023/06/02 00:25:06;;;;;;;3.70;3.33;;;;;;;;;;5121230;28;20262;-69
2023/06/02 00:27:34;;;;;;;4.63;3.70;;;;;;;;;;5121248;28;20220;-69
2023/06/02 00:30:04;;;;;;;5.37;3.50;;;;;;;;;;5120946;28;20224;-69
2023/06/02 00:32:32;;;;;;;10.73;3.33;;;;;;;;;;5120805;28;20786;-69
2023/06/02 00:35:01;;;;;;;5.10;3.50;;;;;;;;;;5120814;28;20204;-68
2023/06/02 00:37:29;;;;;;;6.40;3.83;;;;;;;;;;5121142;28;20208;-69
2023/06/02 00:39:57;;;;;;;5.23;3.60;;;;;;;;;;5120770;28;20210;-69
2023/06/02 00:42:25;;;;;;;5.33;4.03;;;;;;;;;;5120598;28;20291;-69
2023/06/02 00:44:54;;;;;;;6.63;3.63;;;;;;;;;;5120579;28;20207;-67
2023/06/02 00:47:23;;;;;;;4.83;3.50;;;;;;;;;;5120574;28;20209;-67
2023/06/02 00:49:51;;;;;;;4.47;3.90;;;;;;;;;;5120648;28;20232;-68
2023/06/02 00:52:20;;;;;;;5.90;3.73;;;;;;;;;;5120236;28;20296;-67
2023/06/02 00:54:48;;;;;;;6.10;3.80;;;;;;;;;;5120396;28;20318;-67
2023/06/02 00:57:16;;;;;;;5.57;3.53;;;;;;;;;;5120665;28;20211;-69
2023/06/02 00:59:44;;;;;;;4.87;3.30;;;;;;;;;;5120708;28;20230;-69
2023/06/02 01:02:13;;;;;;;6.70;3.30;;;;;;;;;;5120543;28;20242;-69
2023/06/02 01:04:44;;;;;;;5.40;4.03;;;;;;;;;;5119596;28;20214;-69
2023/06/02 01:07:13;;;;;;;5.70;3.37;;;;;;;;;;5117235;28;20235;-67
2023/06/02 01:09:42;;;;;;;4.97;3.63;;;;;;;;;;5111581;28;20236;-67
2023/06/02 01:12:10;;;;;;;3.83;3.10;;;;;;;;;;5120028;28;20200;-67
2023/06/02 01:14:38;;;;;;;5.00;3.13;;;;;;;;;;5120353;28;20239;-68
2023/06/02 01:17:07;;;;;;;3.60;3.30;;;;;;;;;;5120120;28;20259;-68
2023/06/02 01:19:38;;;;;;;5.60;3.90;;;;;;;;;;5115595;28;20736;-68
2023/06/02 01:22:09;;;;;;;6.23;3.73;;;;;;;;;;5111359;28;20268;-69
2023/06/02 01:24:39;;;;;;;6.53;4.00;;;;;;;;;;5119803;27;20203;-68
2023/06/02 01:27:08;;;;;;;7.53;3.83;;;;;;;;;;5111218;28;20221;-68
2023/06/02 01:29:37;;;;;;;3.57;3.27;;;;;;;;;;5114973;28;20205;-67
2023/06/02 01:32:09;;;;;;;4.33;3.50;;;;;;;;;;5120061;28;20211;-69
2023/06/02 01:34:40;;;;;;;4.10;3.70;;;;;;;;;;5119262;28;20575;-68
2023/06/02 01:37:09;;;;;;;3.83;3.10;;;;;;;;;;5110969;28;20315;-69
2023/06/02 01:39:40;;;;;;;6.10;3.20;;;;;;;;;;5114524;28;20223;-69
2023/06/02 01:42:09;;;;;;;3.83;3.40;;;;;;;;;;5113979;28;20558;-69
2023/06/02 01:44:38;;;;;;;5.53;4.43;;;;;;;;;;5118817;27;20199;-67
2023/06/02 01:47:06;;;;;;;5.77;3.37;;;;;;;;;;5139839;27;20257;-69
2023/06/02 01:49:34;;;;;;;5.70;3.40;;;;;;;;;;5115138;27;20563;-69
2023/06/02 01:52:02;;;;;;;5.50;3.60;;;;;;;;;;5118087;28;20214;-69
2023/06/02 01:54:31;;;;;;;3.93;3.53;;;;;;;;;;5119080;28;20233;-69
2023/06/02 01:57:02;;;;;;;4.93;3.77;;;;;;;;;;5119156;28;20228;-69
2023/06/02 01:59:30;;;;;;;5.70;3.83;;;;;;;;;;5119257;28;20609;-69
2023/06/02 02:01:58;;;;;;;8.70;3.50;;;;;;;;;;5119284;28;20660;-69
2023/06/02 02:04:27;;;;;;;6.20;3.87;;;;;;;;;;5118840;28;20563;-69
2023/06/02 02:06:55;;;;;;;6.70;3.60;;;;;;;;;;5119023;28;20233;-68
2023/06/02 02:09:23;;;;;;;7.73;3.87;;;;;;;;;;5119178;28;20207;-68
2023/06/02 02:11:51;;;;;;;5.33;3.70;;;;;;;;;;5119296;28;20212;-68
2023/06/02 02:14:21;;;;;;;8.20;3.93;;;;;;;;;;5118744;28;20286;-68
2023/06/02 02:16:52;;;;;;;8.10;3.97;;;;;;;;;;5118803;28;20239;-69
2023/06/02 02:19:22;;;;;;;4.90;3.70;;;;;;;;;;5118828;28;20210;-69
2023/06/02 02:21:50;;;;;;;4.60;3.40;;;;;;;;;;5118831;28;20217;-67
2023/06/02 02:24:18;;;;;;;5.67;3.63;;;;;;;;;;5118878;28;20281;-67
2023/06/02 02:26:47;;;;;;;4.10;3.70;;;;;;;;;;5116001;28;20224;-67
2023/06/02 02:29:15;;;;;;;7.60;3.50;;;;;;;;;;5110514;28;20207;-69
2023/06/02 02:31:44;;;;;;;5.13;4.03;;;;;;;;;;5118565;28;20208;-68
2023/06/02 02:34:13;;;;;;;5.07;4.10;;;;;;;;;;5118558;28;20251;-68
2023/06/02 02:36:44;;;;;;;6.73;4.20;;;;;;;;;;5118341;28;20588;-67
2023/06/02 02:39:14;;;;;;;10.23;5.77;;;;;;;;;;5117071;28;20273;-68
2023/06/02 02:41:49;;;;;;;4.73;3.57;;;;;;;;;;5104597;28;20255;-69
2023/06/02 02:44:17;;;;;;;3.60;3.27;;;;;;;;;;5113865;28;20283;-68
2023/06/02 02:46:50;;;;;;;8.97;4.40;;;;;;;;;;5128122;27;20718;-68
2023/06/02 02:49:20;;;;;;;4.63;3.70;;;;;;;;;;5138639;27;20228;-68
2023/06/02 02:51:48;;;;;;;6.17;3.83;;;;;;;;;;5138960;27;20231;-68
2023/06/02 02:54:17;;;;;;;4.97;3.93;;;;;;;;;;5138504;27;20249;-68
2023/06/02 02:56:47;;;;;;;4.47;3.00;;;;;;;;;;5138874;27;20307;-68
2023/06/02 02:59:15;;;;;;;8.83;3.10;;;;;;;;;;5139057;27;20208;-68
2023/06/02 03:01:46;;;;;;;3.87;2.60;;;;;;;;;;5138837;27;20297;-68
2023/06/02 03:04:18;;;;;;;5.87;3.00;;;;;;;;;;5138461;27;20223;-67
2023/06/02 03:06:48;;;;;;;3.87;3.00;;;;;;;;;;5138233;27;20279;-68
2023/06/02 03:09:16;;;;;;;3.63;3.03;;;;;;;;;;5118359;28;20207;-68
2023/06/02 03:11:45;;;;;;;4.67;3.23;;;;;;;;;;5118058;28;20213;-68
2023/06/02 03:14:13;;;;;;;5.20;3.07;;;;;;;;;;5118327;28;20232;-68
2023/06/02 03:16:44;;;;;;;3.57;3.17;;;;;;;;;;5118230;28;20240;-68
2023/06/02 03:19:13;;;;;;;5.67;3.40;;;;;;;;;;5117823;28;20223;-68
2023/06/02 03:21:44;;;;;;;4.03;3.00;;;;;;;;;;5118001;28;20268;-68
2023/06/02 03:24:12;;;;;;;4.47;2.97;;;;;;;;;;5118250;28;20212;-68
2023/06/02 03:26:45;;;;;;;3.50;3.20;;;;;;;;;;5116193;28;20227;-68
2023/06/02 03:29:13;;;;;;;7.37;3.37;;;;;;;;;;5122056;28;20617;-68
2023/06/02 03:31:42;;;;;;;4.07;3.13;;;;;;;;;;5121894;28;20558;-68
2023/06/02 03:34:10;;;;;;;3.63;3.13;;;;;;;;;;5121892;28;20224;-68
2023/06/02 03:36:39;;;;;;;3.23;2.93;;;;;;;;;;5121795;28;20303;-69
2023/06/02 03:39:10;;;;;;;4.07;3.03;;;;;;;;;;5121679;28;20226;-68
2023/06/02 03:41:38;;;;;;;4.67;3.30;;;;;;;;;;5115457;28;20283;-67
2023/06/02 03:44:06;;;;;;;3.63;3.23;;;;;;;;;;5116692;28;20207;-65
2023/06/02 03:46:34;;;;;;;8.07;3.47;;;;;;;;;;5121852;28;20227;-67
2023/06/02 03:49:03;;;;;;;4.67;3.40;;;;;;;;;;5121681;28;20199;-66
2023/06/02 03:51:31;;;;;;;5.83;3.23;;;;;;;;;;5121567;28;20981;-66
2023/06/02 03:53:59;;;;;;;7.50;3.37;;;;;;;;;;5120983;28;20704;-66
2023/06/02 03:56:29;;;;;;;4.40;3.10;;;;;;;;;;5121502;28;20295;-66
2023/06/02 03:58:57;;;;;;;4.00;3.27;;;;;;;;;;5121896;27;20203;-68
2023/06/02 04:01:25;;;;;;;4.80;3.40;;;;;;;;;;5121518;28;20205;-68
2023/06/02 04:03:53;;;;;;;8.30;3.53;;;;;;;;;;5121584;28;20219;-68
2023/06/02 04:06:22;;;;;;;7.37;3.40;;;;;;;;;;5121645;28;20222;-68
2023/06/02 04:08:50;;;;;;;6.33;3.30;;;;;;;;;;5121562;28;20236;-68
2023/06/02 04:11:22;;;;;;;5.93;3.23;;;;;;;;;;5121628;28;20207;-68
2023/06/02 04:13:51;;;;;;;3.13;2.80;;;;;;;;;;5121772;27;20212;-68
2023/06/02 04:16:19;;;;;;;5.87;3.00;;;;;;;;;;5121052;28;20709;-68
2023/06/02 04:18:48;;;;;;;4.33;2.70;;;;;;;;;;5121213;28;20203;-68
2023/06/02 04:21:16;;;;;;;4.20;2.83;;;;;;;;;;5121488;28;20205;-68
2023/06/02 04:23:44;;;;;;;5.83;2.90;;;;;;;;;;5121978;27;20211;-68
2023/06/02 04:26:12;;;;;;;6.63;2.90;;;;;;;;;;5135448;27;20220;-68
2023/06/02 04:28:41;;;;;;;5.20;3.00;;;;;;;;;;5121057;28;20205;-68
2023/06/02 04:31:11;;;;;;;4.70;2.80;;;;;;;;;;5121108;28;20291;-68
2023/06/02 04:33:39;;;;;;;4.47;2.57;;;;;;;;;;5120918;28;20211;-68
2023/06/02 04:36:07;;;;;;;4.33;2.77;;;;;;;;;;5120791;28;20232;-68
2023/06/02 04:38:36;;;;;;;5.27;2.40;;;;;;;;;;5120686;28;20290;-68
2023/06/02 04:41:06;;;;;;;5.07;2.57;;;;;;;;;;5115901;28;20200;-68
2023/06/02 04:43:35;;;;;;;4.13;2.77;;;;;;;;;;5120878;28;20212;-68
2023/06/02 04:46:06;;;;;;;5.90;2.73;;;;;;;;;;5121370;28;20230;-68
2023/06/02 04:48:38;;;;;;;3.43;2.43;;;;;;;;;;5120999;28;20212;-68
2023/06/02 04:51:07;;;;;;;5.10;2.70;;;;;;;;;;5121486;28;20291;-68
2023/06/02 04:53:35;;;;;;;4.60;2.73;;;;;;;;;;5120846;28;20266;-68
2023/06/02 04:56:04;;;;;;;4.27;2.33;;;;;;;;;;5120932;28;20228;-67
2023/06/02 04:58:33;;;;;;;5.47;2.43;;;;;;;;;;5120913;28;20220;-68
2023/06/02 05:01:02;;;;;;;2.63;2.43;;;;;;;;;;5120663;28;20207;-68
2023/06/02 05:03:30;;;;;;;5.07;2.50;;;;;;;;;;5120543;28;20604;-68
2023/06/02 05:06:00;;;;;;;2.83;2.27;;;;;;;;;;5120647;28;20311;-67
2023/06/02 05:08:28;;;;;;;3.53;2.53;;;;;;;;;;5120546;28;20213;-67
2023/06/02 05:10:57;;;;;;;6.17;3.03;;;;;;;;;;5120518;28;20218;-66
2023/06/02 05:13:27;;;;;;;3.20;2.37;;;;;;;;;;5120218;28;20234;-65
2023/06/02 05:15:55;;;;;;;2.80;2.40;;;;;;;;;;5122603;27;20221;-66
2023/06/02 05:18:24;;;;;;;5.50;2.70;;;;;;;;;;5119515;28;20232;-67
2023/06/02 05:20:52;;;;;;;3.33;2.27;;;;;;;;;;5122887;27;20205;-67
2023/06/02 05:23:22;;;;;;;3.87;2.17;;;;;;;;;;5119720;28;20567;-65
2023/06/02 05:25:50;;;;;;;6.67;2.77;;;;;;;;;;5120761;27;20299;-67
2023/06/02 05:28:18;;;;;;;5.33;2.33;;;;;;;;;;5119092;27;20204;-67
2023/06/02 05:30:46;;;;;;;2.93;2.20;;;;;;;;;;5121974;27;20611;-67
2023/06/02 05:33:15;;;;;;;2.70;2.33;;;;;;;;;;5119307;28;20215;-67
2023/06/02 05:35:43;;;;;;;7.83;2.67;;;;;;;;;;5120260;27;20587;-68
2023/06/02 05:38:11;;;;;;;6.60;2.70;;;;;;;;;;5119523;28;20210;-67
2023/06/02 05:40:41;;;;;;;3.13;2.30;;;;;;;;;;5118909;28;20283;-68
2023/06/02 05:43:09;;;;;;;5.07;2.30;;;;;;;;;;5120160;27;20224;-67
2023/06/02 05:45:37;;;;;;;3.70;2.30;;;;;;;;;;5116582;28;20213;-67
2023/06/02 05:48:06;;;;;;;3.97;2.20;;;;;;;;;;5120845;27;20212;-68
2023/06/02 05:50:34;;;;;;;4.30;2.33;;;;;;;;;;5121999;27;20221;-67
2023/06/02 05:53:02;;;;;;;4.13;2.73;;;;;;;;;;5119332;28;20229;-68
2023/06/02 05:55:30;;;;;;;2.90;2.20;;;;;;;;;;5119944;27;20237;-67
2023/06/02 05:58:00;;;;;;;4.53;2.47;;;;;;;;;;5117774;27;20204;-66
2023/06/02 06:00:28;;;;;;;3.67;2.60;;;;;;;;;;5118877;27;20208;-66
2023/06/02 06:02:57;;;;;;;4.50;2.23;;;;;;;;;;5120067;27;20198;-66
2023/06/02 06:05:26;;;;;;;2.50;2.07;;;;;;;;;;5122291;27;20262;-67
2023/06/02 06:07:55;;;;;;;2.80;2.33;;;;;;;;;;5118051;28;20200;-66
2023/06/02 06:10:23;;;;;;;3.23;2.00;;;;;;;;;;5119020;27;20193;-66
2023/06/02 06:12:51;;;;;;;2.50;1.80;;;;;;;;;;5118655;28;20254;-66
2023/06/02 06:15:21;;;;;;;3.83;2.13;;;;;;;;;;5118653;27;20247;-66
2023/06/02 06:17:50;;;;;;;2.03;1.93;;;;;;;;;;5117878;28;20284;-67
2023/06/02 06:20:18;;;;;;;5.10;2.27;;;;;;;;;;5118061;28;20202;-67
2023/06/02 06:22:46;;;;;;;5.77;2.63;;;;;;;;;;5118664;27;20204;-67
2023/06/02 06:25:14;;;;;;;5.63;2.27;;;;;;;;;;5118709;27;20217;-68
2023/06/02 06:27:42;;;;;;;7.50;2.40;;;;;;;;;;5118694;28;20208;-68
2023/06/02 06:30:11;;;;;;;4.63;2.80;;;;;;;;;;5119085;27;20208;-68
2023/06/02 06:32:40;;;;;;;4.80;2.23;;;;;;;;;;5115127;28;20636;-68
2023/06/02 06:35:09;;;;;;;3.67;2.00;;;;;;;;;;5118282;28;20596;-67
2023/06/02 06:37:37;;;;;;;3.07;2.07;;;;;;;;;;5117541;28;20737;-67
2023/06/02 06:40:05;;;;;;;5.13;2.50;;;;;;;;;;5117926;28;20689;-67
2023/06/02 06:42:34;;;;;;;6.57;2.37;;;;;;;;;;5109233;28;20211;-67
2023/06/02 06:45:02;;;;;;;4.67;2.30;;;;;;;;;;5113806;28;20302;-67
2023/06/02 06:47:30;;;;;;;4.87;2.37;;;;;;;;;;5118421;28;20210;-67
2023/06/02 06:50:00;;;;;;;4.13;2.90;;;;;;;;;;5118197;28;20687;-68
2023/06/02 06:52:28;;;;;;;4.60;2.40;;;;;;;;;;5117994;28;20232;-68
2023/06/02 06:54:56;;;;;;;4.07;2.33;;;;;;;;;;5116873;28;20289;-68
2023/06/02 06:57:24;;;;;;;5.87;3.10;;;;;;;;;;5119532;27;20584;-68
2023/06/02 06:59:52;;;;;;;7.10;2.83;;;;;;;;;;5119881;27;20760;-68
2023/06/02 07:02:20;;;;;;;6.67;2.70;;;;;;;;;;5122458;27;20202;-68
2023/06/02 07:04:48;;;;;;;3.87;2.47;;;;;;;;;;5138340;27;20212;-67
2023/06/02 07:07:18;;;;;;;4.30;2.70;;;;;;;;;;5133917;27;20200;-68
2023/06/02 07:09:47;;;;;;;4.83;2.60;;;;;;;;;;5118240;28;20210;-67
2023/06/02 07:12:15;;;;;;;3.97;2.53;;;;;;;;;;5118458;28;20213;-67
2023/06/02 07:14:43;;;;;;;4.43;2.70;;;;;;;;;;5118125;28;20295;-67
2023/06/02 07:17:12;;;;;;;4.60;2.50;;;;;;;;;;5118196;28;20229;-67
2023/06/02 07:19:40;;;;;;;2.63;2.37;;;;;;;;;;5118098;28;20287;-67
2023/06/02 07:22:08;;;;;;;3.93;2.43;;;;;;;;;;5115099;28;20572;-67
2023/06/02 07:24:37;;;;;;;4.57;2.63;;;;;;;;;;5099107;28;20249;-66
2023/06/02 07:27:06;;;;;;;4.37;2.50;;;;;;;;;;5113457;28;20218;-66
2023/06/02 07:29:35;;;;;;;5.10;2.67;;;;;;;;;;5124168;28;20685;-66
2023/06/02 07:32:03;;;;;;;7.17;3.17;;;;;;;;;;5138767;27;20237;-67
2023/06/02 07:34:31;;;;;;;4.57;2.33;;;;;;;;;;5127739;27;20220;-67
2023/06/02 07:37:02;;;;;;;5.27;2.80;;;;;;;;;;5117976;28;20263;-67
2023/06/02 07:39:30;;;;;;;4.27;2.60;;;;;;;;;;5118124;28;20221;-67
2023/06/02 07:42:00;;;;;;;4.20;2.40;;;;;;;;;;5107078;28;20234;-68
2023/06/02 07:44:28;;;;;;;8.23;2.70;;;;;;;;;;5112835;28;20293;-67
2023/06/02 07:46:56;;;;;;;4.10;2.40;;;;;;;;;;5120862;28;20219;-68
2023/06/02 07:49:24;;;;;;;4.37;2.57;;;;;;;;;;5138326;27;20213;-69
2023/06/02 07:51:52;;;;;;;5.73;2.53;;;;;;;;;;5138545;27;20256;-69
2023/06/02 07:54:21;;;;;;;4.97;2.73;;;;;;;;;;5138090;27;20243;-70
2023/06/02 07:56:50;;;;;;;6.47;3.57;;;;;;;;;;5138117;27;20616;-69
2023/06/02 07:59:20;;;;;;;10.40;3.00;;;;;;;;;;5138210;27;20251;-69
2023/06/02 08:01:48;;;;;;;4.53;2.37;;;;;;;;;;5128459;27;20231;-70
2023/06/02 08:04:32;;;;;;;4.43;2.80;;;;;;;;;;5127558;28;20246;-71
2023/06/02 08:07:07;;;;;;;5.47;2.70;;;;;;;;;;5104024;28;20217;-71
2023/06/02 08:09:39;;;;;;;5.27;2.60;;;;;;;;;;5102431;28;20305;-71
2023/06/02 08:12:08;;;;;;;5.00;2.23;;;;;;;;;;5121808;28;20208;-71
2023/06/02 08:14:38;;;;;;;4.20;2.53;;;;;;;;;;5120211;28;20841;-71
2023/06/02 08:17:09;;;;;;;6.53;2.40;;;;;;;;;;5111662;28;20320;-71
2023/06/02 08:19:37;;;;;;;10.63;2.47;;;;;;;;;;5115472;27;20655;-70
2023/06/02 08:22:06;;;;;;;7.17;2.97;;;;;;;;;;5122083;27;20212;-70
2023/06/02 08:24:37;;;;;;;8.53;2.80;;;;;;;;;;5133684;27;20650;-70
2023/06/02 08:27:08;;;;;;;3.87;2.57;;;;;;;;;;5127597;27;20223;-70
2023/06/02 08:29:36;;;;;;;2.93;2.60;;;;;;;;;;5115155;28;20200;-70
2023/06/02 08:32:06;;;;;;;7.30;4.37;;;;;;;;;;5102301;28;20208;-70
2023/06/02 08:34:36;;;;;;;3.53;2.70;;;;;;;;;;5134537;27;20197;-70
2023/06/02 08:37:04;;;;;;;3.53;2.97;;;;;;;;;;5133822;27;20267;-70
2023/06/02 08:39:33;;;;;;;3.90;3.20;;;;;;;;;;5120769;27;20208;-70
2023/06/02 08:42:03;;;;;;;4.90;3.77;;;;;;;;;;5130122;27;20252;-70
2023/06/02 08:44:31;;;;;;;4.63;2.80;;;;;;;;;;5120838;28;20205;-70
2023/06/02 08:47:01;;;;;;;3.97;2.93;;;;;;;;;;5120428;28;20751;-70
2023/06/02 08:49:31;;;;;;;7.90;3.57;;;;;;;;;;5120357;28;20256;-70
2023/06/02 08:52:02;;;;;;;6.23;3.30;;;;;;;;;;5120240;28;20228;-70
2023/06/02 08:54:31;;;;;;;5.97;3.40;;;;;;;;;;5120297;28;20213;-70
2023/06/02 08:57:03;;;;;;;5.17;3.27;;;;;;;;;;5106016;28;20228;-70
2023/06/02 08:59:32;;;;;;;4.43;2.97;;;;;;;;;;5120477;28;20719;-65
2023/06/02 09:02:00;;;;;;;4.80;3.10;;;;;;;;;;5120244;28;20647;-65
2023/06/02 09:04:30;;;;;;;4.53;3.50;;;;;;;;;;5119889;28;20697;-67
2023/06/02 09:07:19;;;;;;;5.50;2.70;;;;;;;;;;5136827;27;20234;-66
2023/06/02 09:09:49;;;;;;;5.77;3.23;;;;;;;;;;5121772;27;20642;-65
2023/06/02 09:12:18;;;;;;;8.03;4.00;;;;;;;;;;5123454;27;20264;-65
2023/06/02 09:14:47;;;;;;;4.93;3.47;;;;;;;;;;5120756;27;20253;-65
2023/06/02 09:17:25;;;;;;;7.13;3.20;;;;;;;;;;5117252;28;20225;-65
2023/06/02 09:19:56;;;;;;;9.47;3.53;;;;;;;;;;5120494;27;20213;-65
2023/06/02 09:22:25;;;;;;;3.37;2.67;;;;;;;;;;5130137;27;20260;-65
2023/06/02 09:24:54;;;;;;;7.33;3.53;;;;;;;;;;5119777;27;20199;-65
2023/06/02 09:27:24;;;;;;;5.53;3.70;;;;;;;;;;5117038;27;20189;-64
2023/06/02 09:29:57;;;;;;;4.67;3.17;;;;;;;;;;5120963;27;20232;-64
2023/06/02 09:32:26;;;;;;;5.93;3.53;;;;;;;;;;5118940;27;20653;-64
2023/06/02 09:34:57;;;;;;;4.10;3.57;;;;;;;;;;5121515;27;20602;-64
2023/06/02 09:37:25;;;;;;;7.57;2.93;;;;;;;;;;5119468;27;20257;-61
2023/06/02 09:39:54;;;;;;;6.80;3.93;;;;;;;;;;5120253;27;20211;-62
2023/06/02 09:42:22;;;;;;;8.10;3.23;;;;;;;;;;5120710;27;20678;-62
2023/06/02 09:45:03;;;;;;;5.53;3.30;;;;;;;;;;5120106;27;20238;-62
2023/06/02 09:47:36;;;;;;;7.67;3.50;;;;;;;;;;5120437;27;20202;-62
2023/06/02 09:50:07;;;;;;;6.60;3.83;;;;;;;;;;5117917;27;20203;-63
2023/06/02 09:52:35;;;;;;;4.87;3.33;;;;;;;;;;5118523;27;20314;-63
2023/06/02 09:55:07;;;;;;;9.43;3.57;;;;;;;;;;5120464;27;20214;-64
2023/06/02 09:57:36;;;;;;;8.40;3.33;;;;;;;;;;5121170;27;20579;-64
2023/06/02 10:00:06;;;;;;;6.63;3.20;;;;;;;;;;5116023;28;20306;-63
2023/06/02 10:02:41;;;;;;;7.60;4.33;;;;;;;;;;5116316;27;20195;-63
2023/06/02 10:05:11;;;;;;;5.63;3.50;;;;;;;;;;5120738;27;20254;-64
2023/06/02 10:07:47;;;;;;;7.20;3.90;;;;;;;;;;5116272;28;20225;-64
2023/06/02 10:10:21;;;;;;;5.70;3.37;;;;;;;;;;5119393;27;20198;-65
2023/06/02 10:13:07;;;;;;;5.93;3.90;;;;;;;;;;5120381;27;20256;-64
2023/06/02 10:15:45;;;;;;;7.30;3.63;;;;;;;;;;5133858;27;20309;-64
2023/06/02 10:18:22;;;;;;;9.23;4.07;;;;;;;;;;5115637;28;20317;-63
2023/06/02 10:21:00;;;;;;;5.47;3.67;;;;;;;;;;5127254;27;20201;-62
2023/06/02 10:23:35;;;;;;;6.37;3.60;;;;;;;;;;5139159;27;20202;-62
2023/06/02 10:26:27;;;;;;;7.23;3.97;;;;;;;;;;5139231;27;20719;-62
2023/06/02 10:29:00;;;;;;;4.47;3.40;;;;;;;;;;5120612;27;20195;-63
2023/06/02 10:31:32;;;;;;;7.30;3.43;;;;;;;;;;5118744;27;20736;-62
2023/06/02 10:34:00;;;;;;;4.43;4.00;;;;;;;;;;5110909;28;20208;-64
2023/06/02 10:36:51;;;;;;;7.30;3.67;;;;;;;;;;5117427;28;20226;-64
2023/06/02 10:39:46;;;;;;;7.57;3.60;;;;;;;;;;5122058;27;20218;-64
2023/06/02 10:42:14;;;;;;;5.90;4.07;;;;;;;;;;5098127;28;20208;-63
2023/06/02 10:44:43;;;;;;;4.50;3.53;;;;;;;;;;5100715;27;20219;-63
2023/06/02 10:47:27;;;;;;;4.53;3.40;;;;;;;;;;5139246;27;20232;-63
2023/06/02 10:49:57;;;;;;;5.90;3.87;;;;;;;;;;5137273;27;20732;-68
2023/06/02 10:52:27;;;;;;;4.77;3.47;;;;;;;;;;5138979;27;20241;-69
2023/06/02 10:55:15;;;;;;;4.57;3.97;;;;;;;;;;5138850;27;20215;-67
2023/06/02 10:57:51;;;;;;;4.90;4.07;;;;;;;;;;5139197;27;20216;-67
2023/06/02 11:00:39;;;;;;;7.30;4.10;;;;;;;;;;5121157;27;20206;-66
2023/06/02 11:03:25;;;;;;;6.80;4.30;;;;;;;;;;5117400;28;20203;-66
2023/06/02 11:06:15;;;;;;;7.20;4.13;;;;;;;;;;5116224;28;20215;-67
2023/06/02 11:08:45;;;;;;;8.67;4.00;;;;;;;;;;5115243;28;20658;-67
2023/06/02 11:11:29;;;;;;;11.20;4.50;;;;;;;;;;5118386;28;20210;-67
2023/06/02 11:13:58;;;;;;;7.50;4.20;;;;;;;;;;5116931;28;20237;-68
2023/06/02 11:16:27;;;;;;;7.80;4.70;;;;;;;;;;5117662;27;20283;-71
2023/06/02 11:18:55;;;;;;;7.33;4.50;;;;;;;;;;5118019;28;20222;-70
2023/06/02 11:21:24;;;;;;;4.97;3.70;;;;;;;;;;5119135;28;20202;-71
2023/06/02 11:23:55;;;;;;;6.70;3.87;;;;;;;;;;5114571;28;20286;-70
2023/06/02 11:26:23;;;;;;;6.40;4.20;;;;;;;;;;5117179;28;20697;-70
2023/06/02 11:28:51;;;;;;;4.00;3.53;;;;;;;;;;5117920;28;20205;-65
2023/06/02 11:31:20;;;;;;;7.43;4.07;;;;;;;;;;5122058;28;20208;-67
2023/06/02 11:33:50;;;;;;;5.80;3.90;;;;;;;;;;5138245;27;20266;-67
2023/06/02 11:36:19;;;;;;;5.33;3.57;;;;;;;;;;5138252;27;20257;-65
2023/06/02 11:38:47;;;;;;;7.70;3.90;;;;;;;;;;5138326;27;20233;-64
2023/06/02 11:41:17;;;;;;;4.07;3.63;;;;;;;;;;5119282;27;20963;-64
2023/06/02 11:43:46;;;;;;;4.80;4.10;;;;;;;;;;5109600;28;20202;-65
2023/06/02 11:46:14;;;;;;;6.30;3.73;;;;;;;;;;5119893;27;20228;-65
2023/06/02 11:48:43;;;;;;;7.93;4.67;;;;;;;;;;5117841;28;20205;-64
2023/06/02 11:51:12;;;;;;;4.57;3.47;;;;;;;;;;5121638;28;20242;-66
2023/06/02 11:53:44;;;;;;;8.20;3.90;;;;;;;;;;5121455;27;20267;-66
2023/06/02 11:56:13;;;;;;;5.43;4.17;;;;;;;;;;5121860;28;20229;-65
2023/06/02 11:58:43;;;;;;;6.60;3.70;;;;;;;;;;5119318;28;20220;-64
2023/06/02 12:01:14;;;;;;;6.23;4.33;;;;;;;;;;5129222;27;20211;-65
2023/06/02 12:03:59;;;;;;;5.00;4.03;;;;;;;;;;5123043;27;20646;-65
2023/06/02 12:06:27;;;;;;;5.20;3.73;;;;;;;;;;5120751;27;20226;-65
2023/06/02 12:08:55;;;;;;;5.10;4.03;;;;;;;;;;5121496;28;20207;-66
2023/06/02 12:11:25;;;;;;;5.67;4.20;;;;;;;;;;5121674;28;20294;-64
2023/06/02 12:13:58;;;;;;;7.10;4.73;;;;;;;;;;5121612;28;20225;-65
2023/06/02 12:16:26;;;;;;;7.93;4.30;;;;;;;;;;5117013;28;20231;-65
2023/06/02 12:18:55;;;;;;;6.17;3.77;;;;;;;;;;5110171;28;20245;-64
2023/06/02 12:21:25;;;;;;;7.80;4.00;;;;;;;;;;5121173;28;20211;-65
2023/06/02 12:23:54;;;;;;;6.77;4.40;;;;;;;;;;5121320;28;20250;-64
2023/06/02 12:26:23;;;;;;;8.57;4.17;;;;;;;;;;5121165;28;20310;-65
2023/06/02 12:28:52;;;;;;;6.67;4.13;;;;;;;;;;5121150;28;20286;-65
2023/06/02 12:31:22;;;;;;;6.77;3.97;;;;;;;;;;5121117;28;20214;-65
2023/06/02 12:33:50;;;;;;;7.13;4.17;;;;;;;;;;5120979;28;20206;-65
2023/06/02 12:36:18;;;;;;;5.70;4.57;;;;;;;;;;5120591;28;20702;-64
2023/06/02 12:38:46;;;;;;;5.60;4.50;;;;;;;;;;5120789;28;20207;-64
2023/06/02 12:41:14;;;;;;;6.90;4.33;;;;;;;;;;5127000;27;20214;-65
2023/06/02 12:43:42;;;;;;;7.33;4.10;;;;;;;;;;5122427;27;20218;-65
2023/06/02 12:46:11;;;;;;;8.37;4.33;;;;;;;;;;5120924;28;20230;-65
2023/06/02 12:48:41;;;;;;;7.07;4.23;;;;;;;;;;5120292;28;20631;-64
2023/06/02 12:51:09;;;;;;;5.03;4.53;;;;;;;;;;5120934;28;20206;-65
2023/06/02 12:53:38;;;;;;;4.93;4.43;;;;;;;;;;5117755;28;20260;-65
2023/06/02 12:56:07;;;;;;;6.47;4.13;;;;;;;;;;5112697;28;20317;-65
2023/06/02 12:58:35;;;;;;;9.03;4.57;;;;;;;;;;5119784;28;20207;-65
2023/06/02 13:01:03;;;;;;;5.03;4.53;;;;;;;;;;5120466;28;20228;-65
2023/06/02 13:03:32;;;;;;;5.90;4.53;;;;;;;;;;5120114;28;20207;-65
2023/06/02 13:06:02;;;;;;;5.77;5.00;;;;;;;;;;5120355;28;20250;-65
2023/06/02 13:08:32;;;;;;;6.67;4.63;;;;;;;;;;5120235;28;20218;-65
2023/06/02 13:11:00;;;;;;;5.73;4.57;;;;;;;;;;5120181;28;20704;-65
2023/06/02 13:13:29;;;;;;;5.40;4.50;;;;;;;;;;5120318;28;20208;-65
2023/06/02 13:15:57;;;;;;;5.33;4.77;;;;;;;;;;5120010;28;20622;-65
2023/06/02 13:18:25;;;;;;;6.63;4.77;;;;;;;;;;5120035;28;20237;-65
2023/06/02 13:20:54;;;;;;;4.80;4.10;;;;;;;;;;5119820;28;20317;-65
2023/06/02 13:23:24;;;;;;;5.40;4.27;;;;;;;;;;5119868;28;20251;-65
2023/06/02 13:25:52;;;;;;;6.43;4.60;;;;;;;;;;5120064;28;20218;-65
2023/06/02 13:28:20;;;;;;;7.83;4.60;;;;;;;;;;5119897;28;20232;-65
2023/06/02 13:30:49;;;;;;;6.30;4.63;;;;;;;;;;5120109;28;20199;-65
2023/06/02 13:33:17;;;;;;;5.67;4.63;;;;;;;;;;5119618;28;20677;-65
2023/06/02 13:35:45;;;;;;;4.57;4.17;;;;;;;;;;5119714;28;20257;-65
2023/06/02 13:38:13;;;;;;;8.93;4.67;;;;;;;;;;5119922;28;20205;-65
2023/06/02 13:40:44;;;;;;;7.40;4.80;;;;;;;;;;5119599;27;20217;-65
2023/06/02 13:43:12;;;;;;;5.77;4.20;;;;;;;;;;5106529;28;20211;-63
2023/06/02 13:45:40;;;;;;;7.93;4.63;;;;;;;;;;5119570;28;20255;-63
2023/06/02 13:48:08;;;;;;;4.70;4.00;;;;;;;;;;5119534;28;20211;-64
2023/06/02 13:50:37;;;;;;;7.50;4.77;;;;;;;;;;5119576;28;20245;-63
2023/06/02 13:53:06;;;;;;;5.70;4.88;;;;;;;;;;5118976;27;20238;-64
2023/06/02 13:55:34;;;;;;;6.23;4.40;;;;;;;;;;5119285;28;20585;-63
2023/06/02 13:58:04;;;;;;;9.53;4.93;;;;;;;;;;5117311;28;20202;-63
2023/06/02 14:00:32;;;;;;;9.50;4.97;;;;;;;;;;5105454;28;20226;-63
2023/06/02 14:03:01;;;;;;;5.17;4.40;;;;;;;;;;5110810;27;20291;-63
2023/06/02 14:05:29;;;;;;;7.03;4.73;;;;;;;;;;5107492;28;20215;-65
2023/06/02 14:07:57;;;;;;;7.43;4.50;;;;;;;;;;5109571;28;20213;-65
2023/06/02 14:10:26;;;;;;;7.27;4.53;;;;;;;;;;5114288;28;20209;-65
2023/06/02 14:12:54;;;;;;;7.03;5.13;;;;;;;;;;5115504;28;20288;-64
2023/06/02 14:15:24;;;;;;;7.35;4.90;;;;;;;;;;5118264;28;20241;-64
2023/06/02 14:17:52;;;;;;;5.10;4.47;;;;;;;;;;5113118;28;20204;-65
2023/06/02 14:20:21;;;;;;;5.23;4.53;;;;;;;;;;5118510;28;20228;-64
2023/06/02 14:22:49;;;;;;;6.23;5.00;;;;;;;;;;5114626;27;20207;-64
2023/06/02 14:25:17;;;;;;;6.03;4.35;;;;;;;;;;5122667;27;20234;-65
2023/06/02 14:27:46;;;;;;;8.77;4.60;;;;;;;;;;5118602;28;20198;-66
2023/06/02 14:30:14;;;;;;;5.05;4.50;;;;;;;;;;5119623;27;20275;-66
2023/06/02 14:32:44;;;;;;;5.63;4.80;;;;;;;;;;5118219;27;20197;-65
2023/06/02 14:35:12;;;;;;;10.35;4.93;;;;;;;;;;5121073;27;20590;-65
2023/06/02 14:37:40;;;;;;;6.55;4.45;;;;;;;;;;5100304;28;20235;-64
2023/06/02 14:40:10;;;;;;;6.70;5.03;;;;;;;;;;5103773;28;20309;-65
2023/06/02 14:42:38;;;;;;;5.28;4.45;;;;;;;;;;5107937;28;20233;-63
2023/06/02 14:45:07;;;;;;;5.05;4.55;;;;;;;;;;5117852;27;20201;-62
2023/06/02 14:47:35;;;;;;;11.00;5.33;;;;;;;;;;5099686;28;20204;-65
2023/06/02 14:50:05;;;;;;;5.07;4.40;;;;;;;;;;5105282;28;20204;-64
2023/06/02 14:52:33;;;;;;;13.97;4.63;;;;;;;;;;5116956;28;20235;-64
2023/06/02 14:55:02;;;;;;;7.07;4.57;;;;;;;;;;5132117;27;20249;-64
2023/06/02 14:57:30;;;;;;;7.13;4.43;;;;;;;;;;5109803;28;20207;-64